sensor_id;sensor_type;location;lat;lon;timestamp;pressure;altitude;pressure_sealevel;temperature;humidity
40245;BME280;25963;42.694;23.600;2023-03-14T00:00:13;95508.31;;;1.10;78.64
40245;BME280;25963;42.694;23.600;2023-03-14T00:02:40;95508.78;;;1.05;78.52
40245;BME280;25963;42.694;23.600;2023-03-14T00:05:07;95510.41;;;1.06;79.40
40245;BME280;25963;42.694;23.600;2023-03-14T00:07:37;95506.63;;;1.01;79.58
40245;BME280;25963;42.694;23.600;2023-03-14T00:10:09;95503.66;;;0.96;79.64
40245;BME280;25963;42.694;23.600;2023-03-14T00:12:35;95491.13;;;0.91;80.49
40245;BME280;25963;42.694;23.600;2023-03-14T00:15:01;95489.63;;;0.71;81.15
40245;BME280;25963;42.694;23.600;2023-03-14T00:17:31;95474.22;;;0.51;82.03
40245;BME280;25963;42.694;23.600;2023-03-14T00:19:56;95475.03;;;0.52;81.53
40245;BME280;25963;42.694;23.600;2023-03-14T00:22:22;95479.63;;;0.58;81.32
40245;BME280;25963;42.694;23.600;2023-03-14T00:24:47;95461.97;;;0.43;81.83
40245;BME280;25963;42.694;23.600;2023-03-14T00:27:13;95467.50;;;0.31;82.43
40245;BME280;25963;42.694;23.600;2023-03-14T00:29:38;95458.53;;;0.25;83.02
40245;BME280;25963;42.694;23.600;2023-03-14T00:32:04;95457.41;;;0.10;83.21
40245;BME280;25963;42.694;23.600;2023-03-14T00:34:30;95455.03;;;0.16;83.70
40245;BME280;25963;42.694;23.600;2023-03-14T00:36:56;95442.78;;;0.09;84.88
40245;BME280;25963;42.694;23.600;2023-03-14T00:39:21;95435.69;;;0.11;85.05
40245;BME280;25963;42.694;23.600;2023-03-14T00:41:47;95433.25;;;0.09;84.52
40245;BME280;25963;42.694;23.600;2023-03-14T00:44:12;95431.75;;;0.07;84.10
40245;BME280;25963;42.694;23.600;2023-03-14T00:46:38;95425.06;;;0.04;83.32
40245;BME280;25963;42.694;23.600;2023-03-14T00:49:03;95423.81;;;0.08;83.54
40245;BME280;25963;42.694;23.600;2023-03-14T00:51:29;95415.31;;;0.16;82.88
40245;BME280;25963;42.694;23.600;2023-03-14T00:53:54;95420.13;;;0.11;82.30
40245;BME280;25963;42.694;23.600;2023-03-14T00:56:19;95414.63;;;0.14;82.28
40245;BME280;25963;42.694;23.600;2023-03-14T00:58:45;95429.97;;;0.07;82.54
40245;BME280;25963;42.694;23.600;2023-03-14T01:01:16;95425.06;;;0.04;82.04
40245;BME280;25963;42.694;23.600;2023-03-14T01:03:42;95421.59;;;0.13;82.35
40245;BME280;25963;42.694;23.600;2023-03-14T01:06:18;95415.50;;;0.05;82.14
40245;BME280;25963;42.694;23.600;2023-03-14T01:08:44;95419.13;;;0.12;81.75
40245;BME280;25963;42.694;23.600;2023-03-14T01:11:13;95419.00;;;0.13;82.28
40245;BME280;25963;42.694;23.600;2023-03-14T01:13:39;95412.50;;;0.09;82.20
40245;BME280;25963;42.694;23.600;2023-03-14T01:16:07;95408.69;;;0.04;82.51
40245;BME280;25963;42.694;23.600;2023-03-14T01:18:34;95405.59;;;0.18;81.67
40245;BME280;25963;42.694;23.600;2023-03-14T01:21:07;95396.34;;;0.15;81.81
40245;BME280;25963;42.694;23.600;2023-03-14T01:23:34;95388.03;;;0.30;80.93
40245;BME280;25963;42.694;23.600;2023-03-14T01:25:59;95385.06;;;0.42;80.13
40245;BME280;25963;42.694;23.600;2023-03-14T01:28:25;95379.81;;;0.34;78.93
40245;BME280;25963;42.694;23.600;2023-03-14T01:30:50;95390.91;;;0.44;79.10
40245;BME280;25963;42.694;23.600;2023-03-14T01:33:15;95386.84;;;0.42;79.63
40245;BME280;25963;42.694;23.600;2023-03-14T01:35:41;95384.41;;;0.40;79.38
40245;BME280;25963;42.694;23.600;2023-03-14T01:38:06;95386.78;;;0.34;79.07
40245;BME280;25963;42.694;23.600;2023-03-14T01:40:32;95379.72;;;0.44;79.41
40245;BME280;25963;42.694;23.600;2023-03-14T01:43:06;95368.53;;;0.43;79.04
40245;BME280;25963;42.694;23.600;2023-03-14T01:48:18;95358.44;;;0.40;78.90
40245;BME280;25963;42.694;23.600;2023-03-14T01:50:44;95359.56;;;0.38;80.37
40245;BME280;25963;42.694;23.600;2023-03-14T01:53:09;95368.03;;;0.22;84.06
40245;BME280;25963;42.694;23.600;2023-03-14T01:55:36;95371.41;;;0.05;83.67
40245;BME280;25963;42.694;23.600;2023-03-14T01:58:03;95367.94;;;0.14;84.01
40245;BME280;25963;42.694;23.600;2023-03-14T02:00:30;95359.91;;;-0.11;85.54
40245;BME280;25963;42.694;23.600;2023-03-14T02:03:05;95366.56;;;-0.26;87.40
40245;BME280;25963;42.694;23.600;2023-03-14T02:05:34;95357.53;;;-0.22;87.09
40245;BME280;25963;42.694;23.600;2023-03-14T02:08:02;95363.28;;;-0.28;87.23
40245;BME280;25963;42.694;23.600;2023-03-14T02:10:35;95359.00;;;-0.37;87.51
40245;BME280;25963;42.694;23.600;2023-03-14T02:13:04;95354.72;;;-0.56;87.99
40245;BME280;25963;42.694;23.600;2023-03-14T02:15:30;95360.03;;;-0.58;88.45
40245;BME280;25963;42.694;23.600;2023-03-14T02:17:56;95363.88;;;-0.62;89.06
40245;BME280;25963;42.694;23.600;2023-03-14T02:20:31;95372.06;;;-0.57;88.89
40245;BME280;25963;42.694;23.600;2023-03-14T02:22:58;95378.56;;;-0.53;89.02
40245;BME280;25963;42.694;23.600;2023-03-14T02:25:48;95367.81;;;-0.58;89.79
40245;BME280;25963;42.694;23.600;2023-03-14T02:28:16;95366.78;;;-0.65;90.14
40245;BME280;25963;42.694;23.600;2023-03-14T02:30:41;95366.19;;;-0.59;89.83
40245;BME280;25963;42.694;23.600;2023-03-14T02:33:13;95372.88;;;-0.66;90.61
40245;BME280;25963;42.694;23.600;2023-03-14T02:35:55;95362.41;;;-0.64;90.64
40245;BME280;25963;42.694;23.600;2023-03-14T02:40:47;95362.47;;;-0.84;90.65
40245;BME280;25963;42.694;23.600;2023-03-14T02:43:13;95364.53;;;-0.87;90.67
40245;BME280;25963;42.694;23.600;2023-03-14T02:45:49;95355.91;;;-0.78;90.79
40245;BME280;25963;42.694;23.600;2023-03-14T02:48:28;95342.00;;;-0.77;90.38
40245;BME280;25963;42.694;23.600;2023-03-14T02:50:57;95343.69;;;-0.86;91.05
40245;BME280;25963;42.694;23.600;2023-03-14T02:53:28;95353.59;;;-0.81;90.52
40245;BME280;25963;42.694;23.600;2023-03-14T02:55:54;95346.56;;;-0.89;91.10
40245;BME280;25963;42.694;23.600;2023-03-14T02:58:20;95344.19;;;-0.82;91.21
40245;BME280;25963;42.694;23.600;2023-03-14T03:00:46;95345.31;;;-0.85;91.18
40245;BME280;25963;42.694;23.600;2023-03-14T03:03:12;95344.50;;;-0.85;91.41
40245;BME280;25963;42.694;23.600;2023-03-14T03:05:38;95351.28;;;-0.84;91.19
40245;BME280;25963;42.694;23.600;2023-03-14T03:08:04;95354.63;;;-1.02;92.14
40245;BME280;25963;42.694;23.600;2023-03-14T03:10:30;95361.13;;;-0.88;92.18
40245;BME280;25963;42.694;23.600;2023-03-14T03:12:56;95349.66;;;-0.85;92.90
40245;BME280;25963;42.694;23.600;2023-03-14T03:15:22;95353.50;;;-0.89;93.53
40245;BME280;25963;42.694;23.600;2023-03-14T03:17:47;95361.69;;;-0.94;94.55
40245;BME280;25963;42.694;23.600;2023-03-14T03:20:13;95358.69;;;-0.89;94.31
40245;BME280;25963;42.694;23.600;2023-03-14T03:22:39;95359.91;;;-0.94;94.83
40245;BME280;25963;42.694;23.600;2023-03-14T03:25:06;95362.50;;;-0.94;93.90
40245;BME280;25963;42.694;23.600;2023-03-14T03:27:33;95355.97;;;-0.98;94.65
40245;BME280;25963;42.694;23.600;2023-03-14T03:29:59;95352.03;;;-1.02;94.36
40245;BME280;25963;42.694;23.600;2023-03-14T03:32:25;95362.81;;;-1.06;94.52
40245;BME280;25963;42.694;23.600;2023-03-14T03:34:51;95346.50;;;-1.17;94.94
40245;BME280;25963;42.694;23.600;2023-03-14T03:37:16;95351.25;;;-1.12;95.53
40245;BME280;25963;42.694;23.600;2023-03-14T03:39:42;95355.47;;;-1.11;95.46
40245;BME280;25963;42.694;23.600;2023-03-14T03:42:07;95355.75;;;-1.14;94.76
40245;BME280;25963;42.694;23.600;2023-03-14T03:44:33;95353.84;;;-1.12;94.07
40245;BME280;25963;42.694;23.600;2023-03-14T03:46:58;95355.09;;;-1.16;95.43
40245;BME280;25963;42.694;23.600;2023-03-14T03:49:24;95358.06;;;-1.11;95.57
40245;BME280;25963;42.694;23.600;2023-03-14T03:51:53;95343.13;;;-1.27;96.16
40245;BME280;25963;42.694;23.600;2023-03-14T03:54:18;95354.28;;;-1.26;96.23
40245;BME280;25963;42.694;23.600;2023-03-14T03:56:44;95343.28;;;-1.28;96.41
40245;BME280;25963;42.694;23.600;2023-03-14T03:59:09;95360.69;;;-1.30;97.23
40245;BME280;25963;42.694;23.600;2023-03-14T04:01:35;95350.34;;;-1.30;97.04
40245;BME280;25963;42.694;23.600;2023-03-14T04:04:00;95346.13;;;-1.31;96.88
40245;BME280;25963;42.694;23.600;2023-03-14T04:06:25;95350.34;;;-1.30;98.16
40245;BME280;25963;42.694;23.600;2023-03-14T04:08:51;95353.63;;;-1.38;97.54
40245;BME280;25963;42.694;23.600;2023-03-14T04:11:16;95354.47;;;-1.38;97.93
40245;BME280;25963;42.694;23.600;2023-03-14T04:13:42;95352.94;;;-1.30;96.75
40245;BME280;25963;42.694;23.600;2023-03-14T04:16:16;95356.50;;;-1.31;96.95
40245;BME280;25963;42.694;23.600;2023-03-14T04:18:42;95347.41;;;-1.55;97.52
40245;BME280;25963;42.694;23.600;2023-03-14T04:21:07;95356.63;;;-1.43;97.45
40245;BME280;25963;42.694;23.600;2023-03-14T04:23:33;95341.13;;;-1.52;97.19
40245;BME280;25963;42.694;23.600;2023-03-14T04:25:58;95345.78;;;-1.66;97.72
40245;BME280;25963;42.694;23.600;2023-03-14T04:28:24;95342.50;;;-1.58;98.32
40245;BME280;25963;42.694;23.600;2023-03-14T04:30:49;95347.91;;;-1.42;99.91
40245;BME280;25963;42.694;23.600;2023-03-14T04:33:15;95339.75;;;-1.47;100.00
40245;BME280;25963;42.694;23.600;2023-03-14T04:35:45;95326.00;;;-1.47;100.00
40245;BME280;25963;42.694;23.600;2023-03-14T04:38:11;95323.16;;;-1.54;100.00
40245;BME280;25963;42.694;23.600;2023-03-14T04:40:38;95339.63;;;-1.65;99.51
40245;BME280;25963;42.694;23.600;2023-03-14T04:43:04;95336.78;;;-1.52;99.35
40245;BME280;25963;42.694;23.600;2023-03-14T04:45:29;95340.44;;;-1.45;98.08
40245;BME280;25963;42.694;23.600;2023-03-14T04:47:55;95328.31;;;-1.34;98.41
40245;BME280;25963;42.694;23.600;2023-03-14T04:50:20;95342.19;;;-1.35;97.09
40245;BME280;25963;42.694;23.600;2023-03-14T04:52:45;95329.13;;;-1.34;97.54
40245;BME280;25963;42.694;23.600;2023-03-14T04:55:11;95323.59;;;-1.58;100.00
40245;BME280;25963;42.694;23.600;2023-03-14T04:57:36;95321.81;;;-1.68;100.00
40245;BME280;25963;42.694;23.600;2023-03-14T05:00:03;95329.28;;;-1.65;100.00
40245;BME280;25963;42.694;23.600;2023-03-14T05:02:31;95317.47;;;-1.67;100.00
40245;BME280;25963;42.694;23.600;2023-03-14T05:04:57;95320.72;;;-1.65;100.00
40245;BME280;25963;42.694;23.600;2023-03-14T05:07:22;95324.25;;;-1.56;100.00
40245;BME280;25963;42.694;23.600;2023-03-14T05:09:48;95326.69;;;-1.45;100.00
40245;BME280;25963;42.694;23.600;2023-03-14T05:12:13;95320.13;;;-1.40;99.37
40245;BME280;25963;42.694;23.600;2023-03-14T05:14:39;95320.81;;;-1.38;97.96
40245;BME280;25963;42.694;23.600;2023-03-14T05:17:04;95318.44;;;-1.21;97.29
40245;BME280;25963;42.694;23.600;2023-03-14T05:19:30;95325.03;;;-0.99;96.91
40245;BME280;25963;42.694;23.600;2023-03-14T05:21:56;95312.25;;;-0.73;94.87
40245;BME280;25963;42.694;23.600;2023-03-14T05:24:22;95323.41;;;0.01;90.86
40245;BME280;25963;42.694;23.600;2023-03-14T05:26:47;95324.41;;;0.96;83.56
40245;BME280;25963;42.694;23.600;2023-03-14T05:29:12;95318.56;;;1.78;78.23
40245;BME280;25963;42.694;23.600;2023-03-14T05:31:38;95321.91;;;2.62;74.01
40245;BME280;25963;42.694;23.600;2023-03-14T05:34:03;95323.03;;;3.32;70.00
40245;BME280;25963;42.694;23.600;2023-03-14T05:36:29;95321.47;;;3.93;65.05
40245;BME280;25963;42.694;23.600;2023-03-14T05:38:54;95310.59;;;4.35;63.77
40245;BME280;25963;42.694;23.600;2023-03-14T05:41:20;95303.16;;;5.00;59.86
40245;BME280;25963;42.694;23.600;2023-03-14T05:43:45;95298.81;;;4.92;59.42
40245;BME280;25963;42.694;23.600;2023-03-14T05:46:10;95293.69;;;5.14;58.96
40245;BME280;25963;42.694;23.600;2023-03-14T05:48:36;95294.63;;;5.21;59.06
40245;BME280;25963;42.694;23.600;2023-03-14T05:51:01;95281.06;;;5.32;56.97
40245;BME280;25963;42.694;23.600;2023-03-14T05:53:27;95288.75;;;5.19;56.68
40245;BME280;25963;42.694;23.600;2023-03-14T05:55:55;95281.41;;;5.59;57.68
40245;BME280;25963;42.694;23.600;2023-03-14T05:58:21;95284.59;;;5.90;55.62
40245;BME280;25963;42.694;23.600;2023-03-14T06:00:46;95286.81;;;5.57;57.00
40245;BME280;25963;42.694;23.600;2023-03-14T06:03:12;95289.16;;;5.52;58.19
40245;BME280;25963;42.694;23.600;2023-03-14T06:05:37;95291.84;;;5.59;58.68
40245;BME280;25963;42.694;23.600;2023-03-14T06:08:03;95300.81;;;6.01;57.63
40245;BME280;25963;42.694;23.600;2023-03-14T06:10:29;95299.09;;;5.57;56.74
40245;BME280;25963;42.694;23.600;2023-03-14T06:12:54;95289.81;;;5.54;59.96
40245;BME280;25963;42.694;23.600;2023-03-14T06:15:20;95291.06;;;5.43;61.84
40245;BME280;25963;42.694;23.600;2023-03-14T06:17:45;95293.88;;;5.57;60.74
40245;BME280;25963;42.694;23.600;2023-03-14T06:20:11;95300.41;;;5.67;60.06
40245;BME280;25963;42.694;23.600;2023-03-14T06:22:37;95296.38;;;5.35;58.17
40245;BME280;25963;42.694;23.600;2023-03-14T06:25:04;95291.06;;;4.84;58.08
40245;BME280;25963;42.694;23.600;2023-03-14T06:27:29;95288.28;;;5.00;60.15
40245;BME280;25963;42.694;23.600;2023-03-14T06:29:55;95279.94;;;4.52;59.75
40245;BME280;25963;42.694;23.600;2023-03-14T06:32:20;95287.38;;;4.18;61.84
40245;BME280;25963;42.694;23.600;2023-03-14T06:34:46;95270.00;;;4.10;65.74
40245;BME280;25963;42.694;23.600;2023-03-14T06:37:12;95267.22;;;4.49;64.47
40245;BME280;25963;42.694;23.600;2023-03-14T06:39:37;95276.66;;;4.50;63.33
40245;BME280;25963;42.694;23.600;2023-03-14T06:42:04;95263.94;;;4.85;63.97
40245;BME280;25963;42.694;23.600;2023-03-14T06:44:30;95274.31;;;5.23;60.30
40245;BME280;25963;42.694;23.600;2023-03-14T06:46:55;95272.25;;;5.03;60.43
40245;BME280;25963;42.694;23.600;2023-03-14T06:49:21;95276.03;;;5.16;60.58
40245;BME280;25963;42.694;23.600;2023-03-14T06:51:46;95285.78;;;5.22;60.16
40245;BME280;25963;42.694;23.600;2023-03-14T06:54:12;95281.31;;;5.52;60.31
40245;BME280;25963;42.694;23.600;2023-03-14T06:56:37;95282.84;;;5.46;56.16
40245;BME280;25963;42.694;23.600;2023-03-14T06:59:03;95273.84;;;5.49;59.00
40245;BME280;25963;42.694;23.600;2023-03-14T07:01:30;95270.97;;;5.29;57.48
40245;BME280;25963;42.694;23.600;2023-03-14T07:03:57;95260.88;;;5.26;56.89
40245;BME280;25963;42.694;23.600;2023-03-14T07:06:23;95259.16;;;5.48;58.91
40245;BME280;25963;42.694;23.600;2023-03-14T07:08:49;95262.97;;;5.67;55.05
40245;BME280;25963;42.694;23.600;2023-03-14T07:11:14;95263.72;;;5.61;54.56
40245;BME280;25963;42.694;23.600;2023-03-14T07:13:40;95266.47;;;5.74;54.00
40245;BME280;25963;42.694;23.600;2023-03-14T07:16:06;95251.72;;;5.88;54.12
40245;BME280;25963;42.694;23.600;2023-03-14T07:18:32;95243.59;;;5.98;54.35
40245;BME280;25963;42.694;23.600;2023-03-14T07:20:58;95244.28;;;6.28;57.69
40245;BME280;25963;42.694;23.600;2023-03-14T07:23:23;95246.19;;;6.19;54.14
40245;BME280;25963;42.694;23.600;2023-03-14T07:25:49;95244.34;;;6.34;54.72
40245;BME280;25963;42.694;23.600;2023-03-14T07:28:16;95238.50;;;6.60;53.88
40245;BME280;25963;42.694;23.600;2023-03-14T07:30:41;95233.53;;;6.44;53.99
40245;BME280;25963;42.694;23.600;2023-03-14T07:33:07;95219.00;;;6.42;55.21
40245;BME280;25963;42.694;23.600;2023-03-14T07:35:32;95231.44;;;6.33;56.69
40245;BME280;25963;42.694;23.600;2023-03-14T07:37:58;95213.72;;;6.35;53.94
40245;BME280;25963;42.694;23.600;2023-03-14T07:40:23;95218.25;;;6.48;52.82
40245;BME280;25963;42.694;23.600;2023-03-14T07:42:48;95218.66;;;6.79;56.05
40245;BME280;25963;42.694;23.600;2023-03-14T07:45:14;95215.28;;;6.85;53.24
40245;BME280;25963;42.694;23.600;2023-03-14T07:47:40;95212.66;;;6.85;49.74
40245;BME280;25963;42.694;23.600;2023-03-14T07:50:05;95203.25;;;6.98;53.32
40245;BME280;25963;42.694;23.600;2023-03-14T07:52:31;95203.44;;;7.03;51.99
40245;BME280;25963;42.694;23.600;2023-03-14T07:54:56;95191.97;;;7.04;51.53
40245;BME280;25963;42.694;23.600;2023-03-14T07:57:22;95193.31;;;7.35;51.94
40245;BME280;25963;42.694;23.600;2023-03-14T07:59:49;95182.25;;;7.46;50.04
40245;BME280;25963;42.694;23.600;2023-03-14T08:02:15;95181.25;;;7.47;49.33
40245;BME280;25963;42.694;23.600;2023-03-14T08:04:41;95179.00;;;7.44;49.98
40245;BME280;25963;42.694;23.600;2023-03-14T08:07:07;95184.56;;;7.75;49.42
40245;BME280;25963;42.694;23.600;2023-03-14T08:09:32;95172.06;;;7.91;51.15
40245;BME280;25963;42.694;23.600;2023-03-14T08:11:58;95184.00;;;8.07;46.67
40245;BME280;25963;42.694;23.600;2023-03-14T08:14:23;95190.91;;;8.41;46.22
40245;BME280;25963;42.694;23.600;2023-03-14T08:16:51;95176.97;;;8.47;45.69
40245;BME280;25963;42.694;23.600;2023-03-14T08:19:17;95172.88;;;8.64;46.25
40245;BME280;25963;42.694;23.600;2023-03-14T08:21:42;95176.53;;;8.77;47.15
40245;BME280;25963;42.694;23.600;2023-03-14T08:24:08;95180.72;;;8.91;44.09
40245;BME280;25963;42.694;23.600;2023-03-14T08:26:34;95168.94;;;9.00;46.80
40245;BME280;25963;42.694;23.600;2023-03-14T08:28:59;95168.69;;;9.28;52.22
40245;BME280;25963;42.694;23.600;2023-03-14T08:31:25;95166.66;;;9.24;45.83
40245;BME280;25963;42.694;23.600;2023-03-14T08:33:50;95163.72;;;9.45;47.41
40245;BME280;25963;42.694;23.600;2023-03-14T08:36:17;95160.38;;;9.70;48.64
40245;BME280;25963;42.694;23.600;2023-03-14T08:38:43;95158.72;;;9.75;42.64
40245;BME280;25963;42.694;23.600;2023-03-14T08:41:09;95149.94;;;9.50;43.08
40245;BME280;25963;42.694;23.600;2023-03-14T08:43:34;95155.97;;;9.64;42.23
40245;BME280;25963;42.694;23.600;2023-03-14T08:46:01;95151.88;;;9.68;43.59
40245;BME280;25963;42.694;23.600;2023-03-14T08:48:27;95151.31;;;9.59;44.55
40245;BME280;25963;42.694;23.600;2023-03-14T08:50:52;95137.06;;;9.73;44.35
40245;BME280;25963;42.694;23.600;2023-03-14T08:53:21;95139.56;;;9.93;43.47
40245;BME280;25963;42.694;23.600;2023-03-14T08:55:52;95133.38;;;10.06;45.00
40245;BME280;25963;42.694;23.600;2023-03-14T08:58:17;95140.13;;;9.95;43.35
40245;BME280;25963;42.694;23.600;2023-03-14T09:00:43;95128.78;;;9.95;43.16
40245;BME280;25963;42.694;23.600;2023-03-14T09:03:09;95120.16;;;10.13;42.75
40245;BME280;25963;42.694;23.600;2023-03-14T09:05:34;95112.72;;;10.03;42.93
40245;BME280;25963;42.694;23.600;2023-03-14T09:08:00;95100.97;;;10.31;43.21
40245;BME280;25963;42.694;23.600;2023-03-14T09:10:26;95100.34;;;10.54;43.73
40245;BME280;25963;42.694;23.600;2023-03-14T09:12:51;95093.50;;;10.46;44.10
40245;BME280;25963;42.694;23.600;2023-03-14T09:15:17;95099.56;;;10.71;43.87
40245;BME280;25963;42.694;23.600;2023-03-14T09:17:43;95103.53;;;10.81;40.17
40245;BME280;25963;42.694;23.600;2023-03-14T09:20:11;95091.81;;;11.07;44.34
40245;BME280;25963;42.694;23.600;2023-03-14T09:22:36;95083.91;;;11.25;41.16
40245;BME280;25963;42.694;23.600;2023-03-14T09:25:03;95082.00;;;11.14;39.29
40245;BME280;25963;42.694;23.600;2023-03-14T09:27:29;95073.91;;;11.57;49.06
40245;BME280;25963;42.694;23.600;2023-03-14T09:29:55;95073.00;;;11.52;40.03
40245;BME280;25963;42.694;23.600;2023-03-14T09:32:20;95070.00;;;11.60;43.99
40245;BME280;25963;42.694;23.600;2023-03-14T09:34:45;95059.44;;;11.60;38.95
40245;BME280;25963;42.694;23.600;2023-03-14T09:37:11;95056.34;;;11.63;40.74
40245;BME280;25963;42.694;23.600;2023-03-14T09:39:36;95049.78;;;11.54;40.04
40245;BME280;25963;42.694;23.600;2023-03-14T09:42:04;95042.69;;;11.78;41.35
40245;BME280;25963;42.694;23.600;2023-03-14T09:44:33;95047.97;;;11.66;38.27
40245;BME280;25963;42.694;23.600;2023-03-14T09:47:04;95035.72;;;11.83;40.20
40245;BME280;25963;42.694;23.600;2023-03-14T09:49:33;95034.16;;;11.94;39.30
40245;BME280;25963;42.694;23.600;2023-03-14T09:52:02;95020.94;;;12.29;42.33
40245;BME280;25963;42.694;23.600;2023-03-14T09:54:39;95014.56;;;12.66;40.07
40245;BME280;25963;42.694;23.600;2023-03-14T09:57:19;95009.66;;;12.46;36.62
40245;BME280;25963;42.694;23.600;2023-03-14T09:59:46;95002.75;;;12.56;37.70
40245;BME280;25963;42.694;23.600;2023-03-14T10:02:21;94993.72;;;12.69;39.06
40245;BME280;25963;42.694;23.600;2023-03-14T10:04:49;94980.16;;;12.66;38.41
40245;BME280;25963;42.694;23.600;2023-03-14T10:07:23;94971.94;;;12.79;39.56
40245;BME280;25963;42.694;23.600;2023-03-14T10:09:51;94967.22;;;13.10;37.47
40245;BME280;25963;42.694;23.600;2023-03-14T10:12:17;94966.13;;;12.94;35.54
40245;BME280;25963;42.694;23.600;2023-03-14T10:14:49;94949.94;;;13.07;36.49
40245;BME280;25963;42.694;23.600;2023-03-14T10:17:16;94949.78;;;13.26;37.90
40245;BME280;25963;42.694;23.600;2023-03-14T10:22:19;94938.00;;;13.50;36.68
40245;BME280;25963;42.694;23.600;2023-03-14T10:24:49;94931.16;;;13.88;38.19
40245;BME280;25963;42.694;23.600;2023-03-14T10:27:23;94915.97;;;14.00;37.37
40245;BME280;25963;42.694;23.600;2023-03-14T10:29:57;94921.38;;;13.88;34.49
40245;BME280;25963;42.694;23.600;2023-03-14T10:32:31;94914.03;;;14.18;39.04
40245;BME280;25963;42.694;23.600;2023-03-14T10:35:07;94911.38;;;14.56;35.39
40245;BME280;25963;42.694;23.600;2023-03-14T10:37:34;94900.44;;;14.31;34.65
40245;BME280;25963;42.694;23.600;2023-03-14T10:40:02;94902.22;;;14.47;33.72
40245;BME280;25963;42.694;23.600;2023-03-14T10:42:33;94893.50;;;14.74;36.70
40245;BME280;25963;42.694;23.600;2023-03-14T10:45:05;94888.84;;;14.86;36.88
40245;BME280;25963;42.694;23.600;2023-03-14T10:47:34;94876.91;;;15.16;38.56
40245;BME280;25963;42.694;23.600;2023-03-14T10:52:52;94866.75;;;15.40;32.24
40245;BME280;25963;42.694;23.600;2023-03-14T10:55:18;94850.91;;;15.18;32.36
40245;BME280;25963;42.694;23.600;2023-03-14T10:57:43;94851.69;;;14.86;36.49
40245;BME280;25963;42.694;23.600;2023-03-14T11:00:21;94851.38;;;15.10;32.30
40245;BME280;25963;42.694;23.600;2023-03-14T11:03:10;94848.41;;;15.06;33.93
40245;BME280;25963;42.694;23.600;2023-03-14T11:05:43;94832.81;;;15.15;32.66
40245;BME280;25963;42.694;23.600;2023-03-14T11:08:23;94831.59;;;15.27;32.40
40245;BME280;25963;42.694;23.600;2023-03-14T11:10:54;94820.16;;;15.27;33.05
40245;BME280;25963;42.694;23.600;2023-03-14T11:13:26;94812.81;;;15.39;31.95
40245;BME280;25963;42.694;23.600;2023-03-14T11:27:22;94770.41;;;15.60;34.38
40245;BME280;25963;42.694;23.600;2023-03-14T11:32:45;94754.38;;;15.92;31.87
40245;BME280;25963;42.694;23.600;2023-03-14T11:35:30;94758.91;;;16.02;34.63
40245;BME280;25963;42.694;23.600;2023-03-14T11:41:00;94738.94;;;15.89;30.08
40245;BME280;25963;42.694;23.600;2023-03-14T11:43:37;94734.00;;;15.65;29.41
40245;BME280;25963;42.694;23.600;2023-03-14T11:46:31;94726.22;;;16.11;32.76
40245;BME280;25963;42.694;23.600;2023-03-14T11:49:08;94722.28;;;16.39;30.13
40245;BME280;25963;42.694;23.600;2023-03-14T11:51:46;94719.09;;;16.53;30.16
40245;BME280;25963;42.694;23.600;2023-03-14T11:57:04;94706.31;;;16.39;30.82
40245;BME280;25963;42.694;23.600;2023-03-14T12:10:49;94688.25;;;16.77;31.04
40245;BME280;25963;42.694;23.600;2023-03-14T12:13:16;94681.56;;;16.95;28.39
40245;BME280;25963;42.694;23.600;2023-03-14T12:16:45;94669.06;;;16.65;28.60
40245;BME280;25963;42.694;23.600;2023-03-14T12:18:52;94666.66;;;16.58;28.68
40245;BME280;25963;42.694;23.600;2023-03-14T12:21:18;94665.84;;;16.68;27.92
40245;BME280;25963;42.694;23.600;2023-03-14T12:23:55;94653.63;;;16.72;30.10
40245;BME280;25963;42.694;23.600;2023-03-14T12:26:24;94648.28;;;16.82;32.25
40245;BME280;25963;42.694;23.600;2023-03-14T12:36:54;94638.69;;;16.97;29.64
40245;BME280;25963;42.694;23.600;2023-03-14T12:42:21;94641.56;;;17.10;28.20
40245;BME280;25963;42.694;23.600;2023-03-14T12:44:50;94622.91;;;17.16;29.62
40245;BME280;25963;42.694;23.600;2023-03-14T12:49:52;94623.94;;;17.35;28.82
40245;BME280;25963;42.694;23.600;2023-03-14T12:52:22;94618.31;;;17.37;26.83
40245;BME280;25963;42.694;23.600;2023-03-14T12:55:06;94610.38;;;17.26;26.44
40245;BME280;25963;42.694;23.600;2023-03-14T12:57:51;94618.31;;;17.31;28.13
40245;BME280;25963;42.694;23.600;2023-03-14T13:00:23;94607.56;;;17.52;27.20
40245;BME280;25963;42.694;23.600;2023-03-14T13:02:50;94609.34;;;17.72;28.16
40245;BME280;25963;42.694;23.600;2023-03-14T13:05:19;94609.84;;;17.19;26.42
40245;BME280;25963;42.694;23.600;2023-03-14T13:10:19;94605.63;;;17.03;29.03
40245;BME280;25963;42.694;23.600;2023-03-14T13:15:44;94602.88;;;17.28;28.19
40245;BME280;25963;42.694;23.600;2023-03-14T13:20:45;94579.84;;;17.53;27.30
40245;BME280;25963;42.694;23.600;2023-03-14T13:23:31;94577.28;;;17.27;27.24
40245;BME280;25963;42.694;23.600;2023-03-14T13:25:57;94567.00;;;16.95;26.94
40245;BME280;25963;42.694;23.600;2023-03-14T13:28:24;94569.41;;;16.97;28.23
40245;BME280;25963;42.694;23.600;2023-03-14T13:30:55;94568.53;;;17.17;27.01
40245;BME280;25963;42.694;23.600;2023-03-14T13:33:22;94562.53;;;16.75;27.83
40245;BME280;25963;42.694;23.600;2023-03-14T13:35:55;94548.16;;;16.81;28.35
40245;BME280;25963;42.694;23.600;2023-03-14T13:38:23;94544.97;;;16.59;27.11
40245;BME280;25963;42.694;23.600;2023-03-14T13:40:51;94545.50;;;16.51;27.85
40245;BME280;25963;42.694;23.600;2023-03-14T13:43:24;94539.41;;;16.55;28.37
40245;BME280;25963;42.694;23.600;2023-03-14T13:45:54;94539.59;;;16.74;29.37
40245;BME280;25963;42.694;23.600;2023-03-14T13:48:22;94537.72;;;16.90;29.58
40245;BME280;25963;42.694;23.600;2023-03-14T13:51:00;94523.41;;;16.76;30.02
40245;BME280;25963;42.694;23.600;2023-03-14T13:53:27;94506.91;;;16.48;27.99
40245;BME280;25963;42.694;23.600;2023-03-14T13:55:53;94514.34;;;16.66;28.38
40245;BME280;25963;42.694;23.600;2023-03-14T13:58:26;94511.38;;;16.83;29.36
40245;BME280;25963;42.694;23.600;2023-03-14T14:01:10;94512.47;;;16.82;29.14